Caruth, Missouri
Current Conditions -  °F | °C
As of 4:53 PM on Monday 24 Nov 2014 (Local Time) from KHKA Reporting Station
Clear Clear  
Wind Chill: 58°   Ceiling: Unl
Heat Index: 58°   Visibility: 10mi
Dew Point: 40°   Wind: 12mph
Humidity: 51%   Direction: 220°SW
Pressure: 29.92"   Gusts: NA
Location:  36.2279°N, 90.0425°W
Report Text: KHKA 242253Z AUTO 22010KT 10SM CLR 14/04 A2992 RMK AO2 SLP132 T01440044 $
Loading
Personal Weather Stations






























Interactive Weather Map New forecast layout! Learn more

10-Day Weather Forecast

Advertisements
Track Severe Weather on mobile